Terminal Aerodrome Forecast
Issued by NWS

Home | Current Version | Previous Version | Text Only | Print | Product List | Glossary On
Versions: 1 2 3 4 5 6 7 8 9 10 11 12 13 14 15 16 17 18 19 20 21 22 23 24 25 26 27
000
FTUS42 KCAE 282338
TAFDNL
TAF
KDNL 282338Z 2900/2924 05006KT P6SM VCSH SCT035 OVC070
     FM290600 03005KT P6SM BKN025 OVC040
      TEMPO 2908/2912 5SM -SHRA
     FM291500 35009G15KT P6SM BKN030
      TEMPO 2915/2919 4SM SHRA=

USA.gov is the U.S. government's official web portal to all federal, state and local government web resources and services.